createdAt,value
2019-04-02T00:00:52.850Z,10.81
2019-04-02T00:03:22.395Z,10.80
2019-04-02T00:05:51.723Z,10.80
2019-04-02T00:08:21.408Z,10.79
2019-04-02T00:10:50.749Z,10.79
2019-04-02T00:13:20.114Z,10.78
2019-04-02T00:15:49.461Z,10.76
2019-04-02T00:18:18.798Z,10.76
2019-04-02T00:20:48.152Z,10.74
2019-04-02T00:23:17.486Z,10.76
2019-04-02T00:25:46.839Z,10.76
2019-04-02T00:28:16.186Z,10.74
2019-04-02T00:30:45.551Z,10.74
2019-04-02T00:33:14.900Z,10.70
2019-04-02T00:35:44.295Z,10.70
2019-04-02T00:38:13.622Z,10.70
2019-04-02T00:40:42.979Z,10.69
2019-04-02T00:43:12.322Z,10.63
2019-04-02T00:45:41.664Z,10.66
2019-04-02T00:48:11.048Z,10.63
2019-04-02T00:50:40.975Z,10.63
2019-04-02T00:53:10.633Z,10.68
2019-04-02T00:55:39.986Z,10.67
2019-04-02T00:58:09.371Z,10.65
2019-04-02T01:00:38.929Z,10.64
2019-04-02T01:03:08.271Z,10.64
2019-04-02T01:05:39.160Z,10.61
2019-04-02T01:08:08.489Z,10.61
2019-04-02T01:10:37.822Z,10.61
2019-04-02T01:13:07.178Z,10.61
2019-04-02T01:15:36.562Z,10.58
2019-04-02T01:18:06.011Z,10.55
2019-04-02T01:20:36.980Z,10.58
2019-04-02T01:23:06.395Z,10.55
2019-04-02T01:25:35.769Z,10.58
2019-04-02T01:28:05.121Z,10.58
2019-04-02T01:30:34.468Z,10.58
2019-04-02T01:35:37.220Z,10.62
2019-04-02T01:38:06.959Z,10.58
2019-04-02T01:40:36.657Z,10.55
2019-04-02T01:43:06.011Z,10.57
2019-04-02T01:45:35.368Z,10.56
2019-04-02T01:48:04.741Z,10.54
2019-04-02T01:50:34.079Z,10.54
2019-04-02T01:53:03.412Z,10.55
2019-04-02T01:55:32.778Z,10.55
2019-04-02T01:58:02.136Z,10.54
2019-04-02T02:00:31.582Z,10.48
2019-04-02T02:03:00.928Z,10.41
2019-04-02T02:05:30.265Z,10.35
2019-04-02T02:07:59.601Z,10.15
2019-04-02T02:10:28.951Z,10.15
2019-04-02T02:12:58.434Z,10.07
2019-04-02T02:15:28.285Z,9.98
2019-04-02T02:17:57.623Z,9.91
2019-04-02T02:20:26.961Z,9.84
2019-04-02T02:22:56.323Z,9.79
2019-04-02T02:25:25.658Z,9.73
2019-04-02T02:27:54.998Z,9.66
2019-04-02T02:30:24.328Z,9.58
2019-04-02T02:32:53.673Z,9.53
2019-04-02T02:35:24.505Z,9.50
2019-04-02T02:37:53.861Z,9.46
2019-04-02T02:40:59.229Z,9.40
2019-04-02T02:43:28.548Z,9.37
2019-04-02T02:45:57.888Z,9.29
2019-04-02T02:48:27.252Z,9.29
2019-04-02T02:50:56.599Z,9.28
2019-04-02T02:53:25.919Z,9.25
2019-04-02T02:55:55.276Z,9.21
2019-04-02T02:58:25.414Z,9.19
2019-04-02T03:00:57.315Z,9.20
2019-04-02T03:03:26.537Z,9.21
2019-04-02T03:05:55.832Z,9.21
2019-04-02T03:08:25.194Z,9.21
2019-04-02T03:10:54.548Z,9.20
2019-04-02T03:13:23.972Z,9.19
2019-04-02T03:15:53.360Z,9.19
2019-04-02T03:18:22.691Z,9.20
2019-04-02T03:20:52.043Z,9.21
2019-04-02T03:23:21.392Z,9.21
2019-04-02T03:25:51.863Z,9.19
2019-04-02T03:28:23.877Z,9.17
2019-04-02T03:30:52.612Z,9.15
2019-04-02T03:33:21.943Z,9.15
2019-04-02T03:35:51.309Z,9.12
2019-04-02T03:38:20.688Z,9.10
2019-04-02T03:40:50.008Z,9.09
2019-04-02T03:43:19.356Z,9.07
2019-04-02T03:45:48.683Z,9.05
2019-04-02T03:48:18.007Z,8.99
2019-04-02T03:50:47.358Z,8.96
2019-04-02T03:53:18.796Z,8.95
2019-04-02T03:55:47.772Z,8.94
2019-04-02T03:58:17.118Z,8.92
2019-04-02T04:00:46.462Z,8.88
2019-04-02T04:03:19.442Z,8.85
2019-04-02T04:05:46.894Z,8.82
2019-04-02T04:08:16.237Z,8.79
2019-04-02T04:11:00.863Z,8.76
2019-04-02T04:13:30.204Z,8.72
2019-04-02T04:15:59.938Z,8.71
2019-04-02T04:18:29.280Z,8.70
2019-04-02T04:20:58.701Z,8.69
2019-04-02T04:23:28.137Z,8.67
2019-04-02T04:26:00.772Z,8.67
2019-04-02T04:28:28.530Z,8.65
2019-04-02T04:30:57.892Z,8.64
2019-04-02T04:33:27.209Z,8.64
2019-04-02T04:35:56.548Z,8.64
2019-04-02T04:38:25.913Z,8.64
2019-04-02T04:40:55.248Z,8.64
2019-04-02T04:43:25.064Z,8.64
2019-04-02T04:45:54.531Z,8.65
2019-04-02T04:48:23.876Z,8.64
2019-04-02T04:50:53.221Z,8.65
2019-04-02T04:53:22.540Z,8.65
2019-04-02T04:55:51.939Z,8.63
2019-04-02T04:58:21.247Z,8.59
2019-04-02T05:00:54.740Z,8.60
2019-04-02T05:03:57.736Z,8.61
2019-04-02T05:06:27.070Z,8.60
2019-04-02T05:09:06.423Z,8.57
2019-04-02T05:11:35.790Z,8.56
2019-04-02T05:14:05.202Z,8.55
2019-04-02T05:16:34.505Z,8.51
2019-04-02T05:19:03.860Z,8.48
2019-04-02T05:21:33.261Z,8.45
2019-04-02T05:24:02.552Z,8.41
2019-04-02T05:26:31.887Z,8.38
2019-04-02T05:29:01.197Z,8.35
2019-04-02T05:31:31.880Z,8.33
2019-04-02T05:34:01.495Z,8.31
2019-04-02T05:36:30.837Z,8.27
2019-04-02T05:39:00.176Z,8.22
2019-04-02T05:41:29.508Z,8.17
2019-04-02T05:43:58.941Z,8.10
2019-04-02T05:46:28.276Z,8.05
2019-04-02T05:48:57.615Z,8.01
2019-04-02T05:51:26.926Z,8.00
2019-04-02T05:53:56.276Z,7.96
2019-04-02T05:56:25.597Z,7.93
2019-04-02T05:58:54.949Z,7.87
2019-04-02T06:01:25.650Z,7.84
2019-04-02T06:03:55.015Z,7.84
2019-04-02T06:06:24.365Z,7.80
2019-04-02T06:08:53.702Z,7.79
2019-04-02T06:11:23.049Z,7.78
2019-04-02T06:13:52.396Z,7.77
2019-04-02T06:16:21.707Z,7.76
2019-04-02T06:18:51.328Z,7.76
2019-04-02T06:21:21.690Z,7.74
2019-04-02T06:23:51.748Z,7.72
2019-04-02T06:26:21.395Z,7.70
2019-04-02T06:28:50.753Z,7.67
2019-04-02T06:31:20.160Z,7.65
2019-04-02T06:33:49.487Z,7.63
2019-04-02T06:36:18.846Z,7.64
2019-04-02T06:38:48.224Z,7.66
2019-04-02T06:41:17.990Z,7.65
2019-04-02T06:43:49.814Z,7.65
2019-04-02T06:46:21.218Z,7.65
2019-04-02T06:49:05.046Z,7.65
2019-04-02T06:51:35.572Z,7.65
2019-04-02T06:54:04.923Z,7.65
2019-04-02T06:56:34.436Z,7.64
2019-04-02T06:59:04.940Z,7.63
2019-04-02T07:01:35.299Z,7.64
2019-04-02T07:04:04.778Z,7.67
2019-04-02T07:06:34.140Z,7.68
2019-04-02T07:09:04.826Z,7.68
2019-04-02T07:11:43.098Z,7.68
2019-04-02T07:14:05.527Z,7.69
2019-04-02T07:16:34.883Z,7.69
2019-04-02T07:19:04.195Z,7.69
2019-04-02T07:21:34.856Z,7.68
2019-04-02T07:24:04.842Z,7.69
2019-04-02T07:26:34.198Z,7.69
2019-04-02T07:29:03.644Z,7.69
2019-04-02T07:31:33.088Z,7.68
2019-04-02T07:34:03.039Z,7.68
2019-04-02T07:36:36.224Z,7.69
2019-04-02T07:39:05.290Z,7.69
2019-04-02T07:41:34.627Z,7.72
2019-04-02T07:44:03.988Z,7.74
2019-04-02T07:46:33.306Z,7.79
2019-04-02T07:49:02.650Z,7.83
2019-04-02T07:51:31.990Z,7.85
2019-04-02T07:54:01.366Z,7.86
2019-04-02T07:56:30.697Z,7.83
2019-04-02T07:59:00.024Z,7.80
2019-04-02T08:01:29.366Z,7.77
2019-04-02T08:03:58.697Z,7.77
2019-04-02T08:06:28.148Z,7.78
2019-04-02T08:08:59.561Z,7.78
2019-04-02T08:11:28.907Z,7.79
2019-04-02T08:13:58.237Z,7.86
2019-04-02T08:16:27.848Z,7.93
2019-04-02T08:18:57.173Z,7.96
2019-04-02T08:21:26.516Z,7.97
2019-04-02T08:23:56.053Z,7.96
2019-04-02T08:26:27.325Z,7.91
2019-04-02T08:28:56.677Z,7.90
2019-04-02T08:31:25.978Z,7.93
2019-04-02T08:33:55.332Z,7.96
2019-04-02T08:36:24.662Z,7.99
2019-04-02T08:38:54.526Z,8.01
2019-04-02T08:41:23.913Z,8.03
2019-04-02T08:43:54.307Z,8.05
2019-04-02T08:46:23.628Z,8.08
2019-04-02T08:48:53.020Z,8.15
2019-04-02T08:51:22.346Z,8.18
2019-04-02T08:53:51.703Z,8.21
2019-04-02T08:56:21.020Z,8.24
2019-04-02T08:58:51.932Z,8.31
2019-04-02T09:01:21.615Z,8.38
2019-04-02T09:03:50.939Z,8.44
2019-04-02T09:06:20.283Z,8.49
2019-04-02T09:08:49.952Z,8.50
2019-04-02T09:11:28.508Z,8.58
2019-04-02T09:13:51.956Z,8.70
2019-04-02T09:16:21.310Z,8.83
2019-04-02T09:18:52.912Z,8.87
2019-04-02T09:21:22.244Z,8.84
2019-04-02T09:23:51.569Z,8.79
2019-04-02T09:26:20.954Z,8.79
2019-04-02T09:28:50.319Z,8.83
2019-04-02T09:31:19.645Z,8.83
2019-04-02T09:33:48.987Z,8.75
2019-04-02T09:36:18.820Z,8.72
2019-04-02T09:38:48.243Z,8.71
2019-04-02T09:41:17.648Z,8.78
2019-04-02T09:43:47.027Z,8.83
2019-04-02T09:46:16.353Z,8.88
2019-04-02T09:48:45.701Z,8.93
2019-04-02T09:51:15.032Z,8.99
2019-04-02T09:53:44.384Z,9.06
2019-04-02T09:56:13.742Z,9.02
2019-04-02T09:58:45.164Z,8.95
2019-04-02T10:01:15.749Z,8.93
2019-04-02T10:03:45.279Z,8.92
2019-04-02T10:06:15.200Z,8.92
2019-04-02T10:08:44.649Z,8.95
2019-04-02T10:11:14.106Z,8.96
2019-04-02T10:13:43.460Z,8.94
2019-04-02T10:16:12.862Z,8.94
2019-04-02T10:18:42.174Z,8.97
2019-04-02T10:21:11.540Z,9.08
2019-04-02T10:23:40.867Z,9.20
2019-04-02T10:26:10.194Z,9.32
2019-04-02T10:28:39.561Z,9.31
2019-04-02T10:31:08.889Z,9.28
2019-04-02T10:33:38.242Z,9.27
2019-04-02T10:36:09.625Z,9.26
2019-04-02T10:38:38.987Z,9.25
2019-04-02T10:41:08.369Z,9.27
2019-04-02T10:43:37.725Z,9.34
2019-04-02T10:46:08.020Z,9.37
2019-04-02T10:48:37.798Z,9.32
2019-04-02T10:51:07.133Z,9.24
2019-04-02T10:53:36.469Z,9.18
2019-04-02T10:56:05.925Z,9.25
2019-04-02T10:58:35.263Z,9.34
2019-04-02T11:01:04.990Z,9.42
2019-04-02T11:03:34.331Z,9.47
2019-04-02T11:06:06.054Z,9.46
2019-04-02T11:08:34.730Z,9.43
2019-04-02T11:11:04.063Z,9.41
2019-04-02T11:13:33.505Z,9.55
2019-04-02T11:16:02.923Z,9.65
2019-04-02T11:18:32.381Z,9.62
2019-04-02T11:21:07.485Z,9.54
2019-04-02T11:23:32.763Z,9.46
2019-04-02T11:26:03.454Z,9.39
2019-04-02T11:28:33.150Z,9.38
2019-04-02T11:31:02.499Z,9.42
2019-04-02T11:33:31.810Z,9.43
2019-04-02T11:36:01.162Z,9.41
2019-04-02T11:38:30.485Z,9.50
2019-04-02T11:40:59.870Z,9.49
2019-04-02T11:43:29.185Z,9.51
2019-04-02T11:45:58.540Z,9.46
2019-04-02T11:48:27.881Z,9.51
2019-04-02T11:50:57.220Z,9.59
2019-04-02T11:53:26.581Z,9.65
2019-04-02T11:55:55.937Z,9.72
2019-04-02T11:58:25.252Z,9.80
2019-04-02T12:00:57.766Z,9.86
2019-04-02T12:03:27.119Z,9.90
2019-04-02T12:05:56.467Z,9.99
2019-04-02T12:08:25.812Z,10.07
2019-04-02T12:10:55.140Z,10.18
2019-04-02T12:13:24.498Z,10.31
2019-04-02T12:15:53.805Z,10.46
2019-04-02T12:18:23.165Z,10.62
2019-04-02T12:20:53.716Z,10.64
2019-04-02T12:23:23.064Z,10.70
2019-04-02T12:25:52.406Z,10.67
2019-04-02T12:28:21.746Z,10.79
2019-04-02T12:30:51.093Z,10.75
2019-04-02T12:33:20.427Z,10.65
2019-04-02T12:35:49.782Z,10.44
2019-04-02T12:38:19.137Z,10.26
2019-04-02T12:40:48.482Z,10.10
2019-04-02T12:43:18.926Z,10.04
2019-04-02T12:45:48.353Z,9.91
2019-04-02T12:48:19.727Z,9.91
2019-04-02T12:50:49.323Z,9.82
2019-04-02T12:53:18.648Z,9.79
2019-04-02T12:55:47.975Z,9.69
2019-04-02T12:58:17.295Z,9.64
2019-04-02T13:00:46.621Z,9.78
2019-04-02T13:03:15.947Z,9.78
2019-04-02T13:05:57.603Z,9.64
2019-04-02T13:08:16.357Z,9.51
2019-04-02T13:10:45.674Z,9.38
2019-04-02T13:13:17.937Z,9.26
2019-04-02T13:15:46.082Z,9.22
2019-04-02T13:18:15.429Z,9.24
2019-04-02T13:20:44.785Z,9.24
2019-04-02T13:23:15.714Z,9.16
2019-04-02T13:25:45.179Z,9.05
2019-04-02T13:28:14.526Z,8.91
2019-04-02T13:30:43.864Z,8.74
2019-04-02T13:33:13.163Z,8.53
2019-04-02T13:35:42.493Z,8.44
2019-04-02T13:38:11.848Z,8.37
2019-04-02T13:40:41.187Z,8.35
2019-04-02T13:43:10.536Z,8.40
2019-04-02T13:45:39.901Z,8.69
2019-04-02T13:48:09.245Z,8.99
2019-04-02T13:50:38.567Z,9.08
2019-04-02T13:53:07.924Z,9.13
2019-04-02T13:55:37.215Z,9.09
2019-04-02T13:58:06.567Z,9.06
2019-04-02T14:01:18.094Z,9.11
2019-04-02T14:03:48.776Z,9.06
2019-04-02T14:06:18.943Z,9.08
2019-04-02T14:08:48.272Z,9.11
2019-04-02T14:11:17.996Z,9.30
2019-04-02T14:13:47.312Z,9.26
2019-04-02T14:16:16.664Z,9.25
2019-04-02T14:18:46.007Z,9.19
2019-04-02T14:21:17.865Z,9.10
2019-04-02T14:23:48.492Z,8.96
2019-04-02T14:26:17.527Z,8.83
2019-04-02T14:28:47.281Z,8.73
2019-04-02T14:31:16.583Z,8.66
2019-04-02T14:33:46.036Z,8.61
2019-04-02T14:36:15.629Z,8.60
2019-04-02T14:38:45.709Z,8.82
2019-04-02T14:41:15.049Z,8.93
2019-04-02T14:43:44.467Z,8.94
2019-04-02T14:46:13.844Z,9.01
2019-04-02T14:48:43.170Z,9.29
2019-04-02T14:51:12.492Z,9.52
2019-04-02T14:53:42.112Z,9.66
2019-04-02T14:56:11.428Z,9.79
2019-04-02T14:58:40.771Z,9.73
2019-04-02T15:01:10.099Z,9.56
2019-04-02T15:03:39.441Z,9.37
2019-04-02T15:06:10.329Z,9.46
2019-04-02T15:08:40.018Z,9.67
2019-04-02T15:11:10.919Z,9.54
2019-04-02T15:13:40.458Z,9.39
2019-04-02T15:16:09.925Z,9.27
2019-04-02T15:18:39.243Z,9.24
2019-04-02T15:21:10.891Z,9.50
2019-04-02T15:23:39.736Z,9.79
2019-04-02T15:26:09.058Z,9.95
2019-04-02T15:28:38.415Z,10.15
2019-04-02T15:31:07.750Z,10.27
2019-04-02T15:33:37.232Z,10.25
2019-04-02T15:36:06.570Z,10.23
2019-04-02T15:38:37.989Z,10.22
2019-04-02T15:41:08.366Z,10.21
2019-04-02T15:43:37.883Z,10.22
2019-04-02T15:46:07.216Z,10.06
2019-04-02T15:48:36.739Z,9.96
2019-04-02T15:51:06.321Z,9.97
2019-04-02T15:53:35.676Z,9.95
2019-04-02T15:56:05.030Z,9.83
2019-04-02T15:58:34.340Z,9.83
2019-04-02T16:01:03.725Z,9.79
2019-04-02T16:03:33.134Z,10.06
2019-04-02T16:06:02.658Z,10.22
2019-04-02T16:08:31.999Z,10.32
2019-04-02T16:11:01.474Z,10.20
2019-04-02T16:13:30.883Z,10.18
2019-04-02T16:16:00.367Z,10.19
2019-04-02T16:18:29.746Z,10.26
2019-04-02T16:20:59.110Z,10.32
2019-04-02T16:23:28.435Z,10.44
2019-04-02T16:25:57.819Z,10.32
2019-04-02T16:28:30.005Z,10.48
2019-04-02T16:31:01.349Z,10.58
2019-04-02T16:33:30.702Z,10.58
2019-04-02T16:36:00.051Z,10.24
2019-04-02T16:38:29.883Z,9.91
2019-04-02T16:40:59.215Z,9.68
2019-04-02T16:43:28.586Z,9.55
2019-04-02T16:45:58.003Z,9.54
2019-04-02T16:48:27.351Z,9.49
2019-04-02T16:50:57.574Z,9.35
2019-04-02T16:53:26.921Z,9.22
2019-04-02T16:55:56.280Z,9.12
2019-04-02T16:58:28.056Z,8.98
2019-04-02T17:00:57.415Z,8.83
2019-04-02T17:03:27.109Z,8.74
2019-04-02T17:05:57.896Z,8.63
2019-04-02T17:08:28.869Z,8.57
2019-04-02T17:10:58.737Z,8.48
2019-04-02T17:13:28.084Z,8.43
2019-04-02T17:15:59.386Z,8.36
2019-04-02T17:18:28.493Z,8.30
2019-04-02T17:20:57.823Z,8.23
2019-04-02T17:23:27.191Z,8.19
2019-04-02T17:25:56.533Z,8.14
2019-04-02T17:28:32.054Z,8.09
2019-04-02T17:30:57.093Z,8.04
2019-04-02T17:33:26.440Z,7.96
2019-04-02T17:35:55.773Z,7.89
2019-04-02T17:38:27.186Z,7.80
2019-04-02T17:40:56.522Z,7.72
2019-04-02T17:43:25.877Z,7.64
2019-04-02T17:45:56.133Z,7.57
2019-04-02T17:48:26.118Z,7.51
2019-04-02T17:50:55.420Z,7.50
2019-04-02T17:53:24.771Z,7.44
2019-04-02T17:55:54.331Z,7.41
2019-04-02T17:58:25.027Z,7.38
2019-04-02T18:00:54.368Z,7.35
2019-04-02T18:03:26.192Z,7.36
2019-04-02T18:05:54.837Z,7.39
2019-04-02T18:08:25.017Z,7.41
2019-04-02T18:10:55.329Z,7.46
2019-04-02T18:13:24.647Z,7.45
2019-04-02T18:15:53.991Z,7.42
2019-04-02T18:18:23.310Z,7.40
2019-04-02T18:20:52.735Z,7.38
2019-04-02T18:23:22.324Z,7.37
2019-04-02T18:25:51.702Z,7.35
2019-04-02T18:28:21.089Z,7.29
2019-04-02T18:30:50.505Z,7.28
2019-04-02T18:33:20.345Z,7.27
2019-04-02T18:35:51.394Z,7.24
2019-04-02T18:38:20.815Z,7.22
2019-04-02T18:40:50.142Z,7.20
2019-04-02T18:43:19.518Z,7.20
2019-04-02T18:45:49.119Z,7.19
2019-04-02T18:48:18.489Z,7.17
2019-04-02T18:50:47.820Z,7.12
2019-04-02T18:53:17.315Z,7.08
2019-04-02T18:55:46.631Z,7.04
2019-04-02T18:58:15.989Z,7.02
2019-04-02T19:00:45.333Z,7.00
2019-04-02T19:03:14.637Z,6.95
2019-04-02T19:05:44.025Z,6.89
2019-04-02T19:08:22.265Z,6.86
2019-04-02T19:10:44.657Z,6.83
2019-04-02T19:13:16.960Z,6.79
2019-04-02T19:15:45.077Z,6.76
2019-04-02T19:18:16.229Z,6.73
2019-04-02T19:20:45.589Z,6.67
2019-04-02T19:23:14.927Z,6.63
2019-04-02T19:25:44.293Z,6.60
2019-04-02T19:28:13.641Z,6.57
2019-04-02T19:30:42.958Z,6.55
2019-04-02T19:33:12.329Z,6.52
2019-04-02T19:35:42.480Z,6.50
2019-04-02T19:38:12.056Z,6.48
2019-04-02T19:40:42.522Z,6.48
2019-04-02T19:43:11.828Z,6.46
2019-04-02T19:45:41.199Z,6.44
2019-04-02T19:48:10.570Z,6.42
2019-04-02T19:50:39.870Z,6.41
2019-04-02T19:53:09.231Z,6.42
2019-04-02T19:55:40.807Z,6.42
2019-04-02T19:58:10.585Z,6.43
2019-04-02T20:00:39.911Z,6.44
2019-04-02T20:03:09.287Z,6.46
2019-04-02T20:05:38.602Z,6.46
2019-04-02T20:08:10.002Z,6.44
2019-04-02T20:10:39.354Z,6.44
2019-04-02T20:13:08.717Z,6.44
2019-04-02T20:15:38.044Z,6.43
2019-04-02T20:18:07.409Z,6.43
2019-04-02T20:20:36.753Z,6.43
2019-04-02T20:23:06.112Z,6.45
2019-04-02T20:25:37.730Z,6.44
2019-04-02T20:28:09.110Z,6.44
2019-04-02T20:30:39.497Z,6.46
2019-04-02T20:33:10.921Z,6.46
2019-04-02T20:35:40.267Z,6.47
2019-04-02T20:38:09.612Z,6.48
2019-04-02T20:40:38.964Z,6.47
2019-04-02T20:43:10.792Z,6.46
2019-04-02T20:45:39.413Z,6.46
2019-04-02T20:48:08.806Z,6.45
2019-04-02T20:50:38.913Z,6.44
2019-04-02T20:53:16.245Z,6.44
2019-04-02T20:55:41.653Z,6.43
2019-04-02T20:58:11.017Z,6.40
2019-04-02T21:00:43.066Z,6.41
2019-04-02T21:03:12.631Z,6.38
2019-04-02T21:05:42.023Z,6.35
2019-04-02T21:08:21.710Z,6.34
2019-04-02T21:10:42.455Z,6.33
2019-04-02T21:13:14.776Z,6.31
2019-04-02T21:15:42.870Z,6.31
2019-04-02T21:18:12.240Z,6.30
2019-04-02T21:20:41.566Z,6.30
2019-04-02T21:23:10.886Z,6.30
2019-04-02T21:25:41.254Z,6.29
2019-04-02T21:28:10.820Z,6.28
2019-04-02T21:30:40.168Z,6.27
2019-04-02T21:33:09.474Z,6.26
2019-04-02T21:35:44.480Z,6.25
2019-04-02T21:38:09.865Z,6.24
2019-04-02T21:40:39.258Z,6.22
2019-04-02T21:43:08.633Z,6.21
2019-04-02T21:45:37.978Z,6.19
2019-04-02T21:48:07.758Z,6.18
2019-04-02T21:50:37.599Z,6.16
2019-04-02T21:53:09.754Z,6.14
2019-04-02T21:55:37.986Z,6.11
2019-04-02T21:58:07.340Z,6.11
2019-04-02T22:00:50.958Z,6.09
2019-04-02T22:03:21.842Z,6.07
2019-04-02T22:05:51.295Z,6.05
2019-04-02T22:08:20.670Z,6.05
2019-04-02T22:10:50.005Z,6.07
2019-04-02T22:13:19.352Z,6.07
2019-04-02T22:15:48.708Z,6.07
2019-04-02T22:18:18.049Z,6.07
2019-04-02T22:20:47.435Z,6.07
2019-04-02T22:23:17.763Z,6.07
2019-04-02T22:25:47.113Z,6.05
2019-04-02T22:28:16.426Z,6.04
2019-04-02T22:30:47.705Z,6.02
2019-04-02T22:33:18.404Z,6.01
2019-04-02T22:35:47.906Z,5.99
2019-04-02T22:38:19.470Z,5.97
2019-04-02T22:40:48.824Z,5.95
2019-04-02T22:43:18.164Z,5.96
2019-04-02T22:45:48.166Z,5.93
2019-04-02T22:48:17.751Z,5.92
2019-04-02T22:50:47.126Z,5.90
2019-04-02T22:53:16.464Z,5.90
2019-04-02T22:55:45.804Z,5.90
2019-04-02T22:58:15.128Z,5.89
2019-04-02T23:00:44.469Z,5.89
2019-04-02T23:03:13.861Z,5.86
2019-04-02T23:05:43.206Z,5.85
2019-04-02T23:08:12.523Z,5.85
2019-04-02T23:10:41.847Z,5.82
2019-04-02T23:13:11.194Z,5.81
2019-04-02T23:15:40.493Z,5.81
2019-04-02T23:18:11.051Z,5.80
2019-04-02T23:20:40.405Z,5.78
2019-04-02T23:23:09.791Z,5.77
2019-04-02T23:25:39.097Z,5.76
2019-04-02T23:28:08.461Z,5.75
2019-04-02T23:30:37.860Z,5.73
2019-04-02T23:33:07.242Z,5.72
2019-04-02T23:35:36.583Z,5.70
2019-04-02T23:38:05.917Z,5.68
2019-04-02T23:40:35.242Z,5.66
2019-04-02T23:43:04.594Z,5.64
2019-04-02T23:45:34.021Z,5.64
2019-04-02T23:48:03.898Z,5.65
2019-04-02T23:50:33.884Z,5.66
2019-04-02T23:53:03.787Z,5.67
2019-04-02T23:55:33.749Z,5.67
2019-04-02T23:58:04.957Z,5.68
